Time;durP1;ratioP1;P1;durP2;ratioP2;P2;SDS_P1;SDS_P2;PMS_P1;PMS_P2;Temp;Humidity;BMP_temperature;BMP_pressure;BME280_temperature;BME280_humidity;BME280_pressure;Samples;Min_cycle;Max_cycle;Signal;HPM_P1;HPM_P2
2022/08/13 00:01:23;;;;;;;5.75;2.10;;;19.10;99.90;;;;;;5050541;28;20417;-50
2022/08/13 00:03:52;;;;;;;6.10;2.50;;;19.00;99.90;;;;;;5051231;28;20480;-51
2022/08/13 00:09:06;;;;;;;6.70;2.67;;;19.10;99.90;;;;;;5050741;28;20451;-54
2022/08/13 00:14:22;;;;;;;6.13;2.70;;;19.20;99.90;;;;;;5031044;28;20843;-51
2022/08/13 00:16:49;;;;;;;5.82;2.45;;;19.10;99.90;;;;;;5033431;28;20379;-50
2022/08/13 00:19:15;;;;;;;6.07;2.55;;;19.10;99.90;;;;;;5050451;28;20435;-50
2022/08/13 00:21:41;;;;;;;6.90;2.70;;;19.00;99.90;;;;;;5051167;28;20417;-53
2022/08/13 00:24:07;;;;;;;6.25;2.60;;;19.00;99.90;;;;;;5050446;28;20379;-50
2022/08/13 00:26:33;;;;;;;7.57;2.72;;;19.00;99.90;;;;;;5050318;28;20531;-50
2022/08/13 00:29:00;;;;;;;6.10;2.70;;;19.00;99.90;;;;;;5050112;28;20410;-51
2022/08/13 00:31:26;;;;;;;6.20;2.50;;;19.00;99.90;;;;;;5050030;28;20782;-51
2022/08/13 00:33:52;;;;;;;6.40;2.40;;;18.90;99.90;;;;;;5050128;28;20382;-51
2022/08/13 00:36:18;;;;;;;7.30;2.13;;;18.90;99.90;;;;;;5049504;28;20451;-52
2022/08/13 00:38:45;;;;;;;11.70;2.70;;;18.90;99.90;;;;;;5050482;28;20378;-50
2022/08/13 00:41:37;;;;;;;6.22;2.30;;;18.90;99.90;;;;;;5049490;28;20394;-50
2022/08/13 00:43:58;;;;;;;6.67;2.70;;;18.80;99.90;;;;;;5049812;28;20920;-50
2022/08/13 00:46:24;;;;;;;6.40;3.10;;;18.70;99.90;;;;;;5048937;28;20385;-51
2022/08/13 00:48:51;;;;;;;7.22;2.90;;;18.70;99.90;;;;;;5050711;28;20866;-50
2022/08/13 00:51:16;;;;;;;8.93;2.90;;;18.70;99.90;;;;;;5049053;28;20397;-50
2022/08/13 00:53:44;;;;;;;6.90;3.10;;;18.70;99.90;;;;;;5049981;28;20390;-51
2022/08/13 00:56:10;;;;;;;6.40;2.80;;;18.70;99.90;;;;;;5050127;28;20819;-50
2022/08/13 00:58:37;;;;;;;6.63;2.67;;;18.70;99.90;;;;;;5050305;28;20432;-50
2022/08/13 01:01:05;;;;;;;7.53;2.60;;;18.60;99.90;;;;;;5050069;28;20397;-52
2022/08/13 01:03:32;;;;;;;6.00;2.40;;;18.60;99.90;;;;;;5049605;28;20382;-51
2022/08/13 01:05:59;;;;;;;7.50;2.80;;;18.50;99.90;;;;;;5050128;28;20463;-50
2022/08/13 01:08:26;;;;;;;6.05;2.40;;;18.40;99.90;;;;;;5049053;28;20373;-50
2022/08/13 01:10:56;;;;;;;6.93;2.85;;;18.30;99.90;;;;;;5050231;28;20384;-50
2022/08/13 01:13:25;;;;;;;6.30;2.65;;;18.20;99.90;;;;;;5049370;28;20404;-50
2022/08/13 01:15:51;;;;;;;6.45;2.63;;;18.20;99.90;;;;;;5029793;28;20724;-50
2022/08/13 01:18:20;;;;;;;6.70;2.72;;;18.20;99.90;;;;;;5040964;28;20420;-50
2022/08/13 01:20:49;;;;;;;6.47;2.70;;;18.20;99.90;;;;;;5049302;28;20385;-50
2022/08/13 01:23:16;;;;;;;6.35;2.70;;;18.20;99.90;;;;;;5048839;28;20797;-50
2022/08/13 01:25:44;;;;;;;6.40;2.60;;;18.20;99.90;;;;;;5050174;28;20400;-50
2022/08/13 01:28:12;;;;;;;6.60;2.60;;;18.10;99.90;;;;;;5049179;28;20417;-50
2022/08/13 01:30:44;;;;;;;7.70;2.75;;;18.10;99.90;;;;;;5049715;28;20519;-50
2022/08/13 01:33:14;;;;;;;6.63;2.70;;;18.10;99.90;;;;;;5048932;28;20393;-50
2022/08/13 01:35:40;;;;;;;6.20;2.87;;;18.10;99.90;;;;;;5049528;28;20378;-50
2022/08/13 01:38:07;;;;;;;5.90;2.40;;;18.10;99.90;;;;;;5049062;28;20385;-51
2022/08/13 01:40:34;;;;;;;6.90;2.70;;;18.20;99.90;;;;;;5051323;28;20374;-50
2022/08/13 01:43:00;;;;;;;7.00;2.80;;;18.20;99.90;;;;;;5053715;28;20409;-50
2022/08/13 01:45:27;;;;;;;8.13;2.65;;;18.10;99.90;;;;;;5053163;28;20438;-50
2022/08/13 01:50:37;;;;;;;7.00;2.90;;;18.00;99.90;;;;;;5053880;28;20430;-50
2022/08/13 01:53:08;;;;;;;8.23;2.80;;;17.90;99.90;;;;;;5053307;28;20484;-50
2022/08/13 01:55:41;;;;;;;7.10;2.90;;;17.80;99.90;;;;;;5053557;28;20412;-50
2022/08/13 01:58:12;;;;;;;8.45;3.35;;;17.70;99.90;;;;;;5052581;28;20405;-54
2022/08/13 02:00:43;;;;;;;6.10;2.63;;;17.50;99.90;;;;;;5053373;28;20963;-50
2022/08/13 02:03:11;;;;;;;6.60;2.60;;;17.30;99.90;;;;;;5052413;28;20458;-54
2022/08/13 02:05:38;;;;;;;7.80;2.60;;;17.20;99.90;;;;;;5053209;28;20385;-50
2022/08/13 02:08:06;;;;;;;6.45;3.00;;;17.10;99.90;;;;;;5053156;28;20454;-53
2022/08/13 02:10:33;;;;;;;6.55;3.00;;;17.00;99.90;;;;;;5053620;28;20389;-50
2022/08/13 02:12:59;;;;;;;6.38;2.80;;;16.80;99.90;;;;;;5053250;28;20909;-50
2022/08/13 02:15:24;;;;;;;6.97;2.70;;;16.70;99.90;;;;;;5052342;28;20389;-50
2022/08/13 02:17:50;;;;;;;7.17;2.60;;;16.70;99.90;;;;;;5053239;28;20762;-51
2022/08/13 02:20:18;;;;;;;6.20;2.60;;;16.70;99.90;;;;;;5052423;28;20483;-50
2022/08/13 02:22:46;;;;;;;6.60;2.50;;;16.70;99.90;;;;;;5052283;28;20858;-50
2022/08/13 02:25:13;;;;;;;6.30;2.70;;;16.70;99.90;;;;;;5052091;28;20422;-50
2022/08/13 02:27:40;;;;;;;8.40;2.75;;;16.70;99.90;;;;;;5052750;28;20388;-50
2022/08/13 02:30:09;;;;;;;6.47;2.90;;;16.70;99.90;;;;;;5053003;28;20377;-50
2022/08/13 02:32:36;;;;;;;6.35;2.67;;;16.60;99.90;;;;;;5052975;28;20381;-51
2022/08/13 02:35:04;;;;;;;7.20;2.70;;;16.60;1.00;;;;;;5052346;28;20401;-51
2022/08/13 02:37:32;;;;;;;6.10;2.50;;;16.50;1.00;;;;;;5052131;28;20875;-50
2022/08/13 02:39:59;;;;;;;8.25;2.80;;;16.50;1.00;;;;;;5052242;28;20423;-49
2022/08/13 02:42:28;;;;;;;7.10;2.70;;;16.40;1.00;;;;;;5052043;28;20409;-50
2022/08/13 02:44:54;;;;;;;7.50;2.65;;;16.30;1.00;;;;;;5052146;28;20397;-50
2022/08/13 02:47:21;;;;;;;8.10;2.70;;;16.30;1.00;;;;;;5051244;28;20398;-49
2022/08/13 02:49:51;;;;;;;6.28;2.80;;;16.20;1.00;;;;;;5052841;28;20434;-49
2022/08/13 02:52:19;;;;;;;13.10;3.30;;;16.20;1.00;;;;;;5051041;28;20447;-50
2022/08/13 02:54:47;;;;;;;6.47;2.80;;;16.10;1.00;;;;;;5052732;28;20708;-49
2022/08/13 02:57:13;;;;;;;8.48;3.70;;;16.10;1.00;;;;;;5051800;28;20489;-49
2022/08/13 02:59:41;;;;;;;7.45;3.25;;;16.00;1.00;;;;;;5052381;28;20425;-50
2022/08/13 03:02:08;;;;;;;6.93;3.00;;;16.00;1.00;;;;;;5051739;28;20858;-53
2022/08/13 03:04:34;;;;;;;8.15;3.80;;;16.00;1.00;;;;;;5052477;28;20385;-49
2022/08/13 03:07:02;;;;;;;7.38;2.85;;;16.00;1.00;;;;;;5051679;28;20393;-50
2022/08/13 03:09:28;;;;;;;8.27;3.10;;;15.90;36.20;;;;;;5051298;28;20426;-49
2022/08/13 03:11:57;;;;;;;7.30;3.10;;;15.90;30.70;;;;;;5051671;28;20926;-49
2022/08/13 03:14:24;;;;;;;6.63;2.90;;;15.50;29.30;;;;;;5051818;28;20385;-50
2022/08/13 03:16:49;;;;;;;6.70;3.30;;;15.90;83.00;;;;;;5051998;28;20802;-50
2022/08/13 03:19:15;;;;;;;6.90;3.20;;;15.90;99.90;;;;;;5051580;28;20389;-49
2022/08/13 03:21:45;;;;;;;6.90;3.00;;;15.80;99.90;;;;;;5051604;28;20453;-50
2022/08/13 03:24:14;;;;;;;7.40;3.00;;;15.70;99.90;;;;;;5051671;28;20524;-49
2022/08/13 03:26:40;;;;;;;8.00;3.28;;;15.60;99.90;;;;;;5051680;28;20393;-50
2022/08/13 03:29:07;;;;;;;8.10;3.13;;;15.50;99.90;;;;;;5051432;28;20412;-49
2022/08/13 03:31:35;;;;;;;7.30;3.10;;;15.40;99.90;;;;;;5050951;28;20455;-51
2022/08/13 03:34:02;;;;;;;7.03;3.15;;;15.40;99.90;;;;;;5031785;28;20383;-50
2022/08/13 03:36:30;;;;;;;7.85;3.15;;;15.30;99.90;;;;;;5042782;28;20401;-50
2022/08/13 03:38:56;;;;;;;9.52;2.92;;;15.20;1.00;;;;;;5051318;28;20739;-49
2022/08/13 03:41:21;;;;;;;7.10;3.13;;;15.10;1.00;;;;;;5050082;28;20401;-50
2022/08/13 03:43:48;;;;;;;7.50;3.43;;;15.10;1.00;;;;;;5052147;28;20727;-50
2022/08/13 03:46:19;;;;;;;7.40;3.30;;;15.00;1.00;;;;;;5050853;28;20404;-50
2022/08/13 03:48:50;;;;;;;7.30;3.00;;;15.00;1.00;;;;;;5051325;28;20435;-50
2022/08/13 03:51:17;;;;;;;8.30;3.20;;;14.90;27.10;;;;;;5050466;28;20455;-49
2022/08/13 03:53:44;;;;;;;9.73;4.00;;;14.90;1.00;;;;;;5051148;28;20413;-50
2022/08/13 03:56:11;;;;;;;7.00;3.20;;;15.00;1.00;;;;;;5050847;28;20398;-50
2022/08/13 03:58:37;;;;;;;9.30;3.30;;;15.00;1.00;;;;;;5051117;28;20389;-49
2022/08/13 04:01:04;;;;;;;6.90;3.53;;;15.00;1.00;;;;;;5050899;28;20389;-50
2022/08/13 04:03:41;;;;;;;7.43;3.88;;;15.00;99.90;;;;;;5049867;28;20401;-49
2022/08/13 04:06:15;;;;;;;7.18;3.30;;;14.90;1.00;;;;;;5050193;28;20401;-53
2022/08/13 04:08:43;;;;;;;6.75;3.13;;;14.90;1.00;;;;;;5051209;28;20381;-49
2022/08/13 04:11:14;;;;;;;8.18;3.50;;;14.80;1.00;;;;;;5050669;28;20386;-53
2022/08/13 04:13:41;;;;;;;8.52;3.50;;;14.90;1.00;;;;;;5050943;28;20861;-49
2022/08/13 04:16:13;;;;;;;7.43;3.40;;;14.90;1.00;;;;;;5050660;28;20790;-49
2022/08/13 04:18:41;;;;;;;9.02;3.60;;;14.90;1.00;;;;;;5050595;28;20720;-49
2022/08/13 04:21:09;;;;;;;9.00;4.10;;;14.90;1.00;;;;;;5050236;28;20760;-50
2022/08/13 04:23:39;;;;;;;9.18;3.85;;;14.90;1.00;;;;;;5049937;28;20936;-49
2022/08/13 04:26:08;;;;;;;8.55;3.78;;;14.90;1.00;;;;;;5050170;28;20404;-49
2022/08/13 04:28:35;;;;;;;6.65;3.53;;;14.90;1.00;;;;;;5050475;28;20435;-51
2022/08/13 04:31:00;;;;;;;9.02;3.85;;;15.00;1.00;;;;;;5050782;28;20400;-49
2022/08/13 04:33:27;;;;;;;7.45;3.40;;;15.00;1.00;;;;;;5049740;28;20751;-50
2022/08/13 04:35:53;;;;;;;7.68;3.50;;;15.00;1.00;;;;;;5050613;28;20388;-51
2022/08/13 04:38:19;;;;;;;8.77;4.00;;;15.10;1.00;;;;;;5049488;28;20713;-49
2022/08/13 04:40:46;;;;;;;7.25;3.60;;;15.20;1.00;;;;;;5050033;28;20469;-50
2022/08/13 04:43:12;;;;;;;8.95;3.53;;;15.20;1.00;;;;;;5049501;28;20897;-51
2022/08/13 04:45:39;;;;;;;7.28;3.35;;;15.20;1.00;;;;;;5050166;28;20381;-50
2022/08/13 04:48:09;;;;;;;8.40;3.40;;;15.10;1.00;;;;;;5049904;28;20390;-50
2022/08/13 04:50:36;;;;;;;6.72;3.15;;;15.10;1.00;;;;;;5050542;28;20794;-50
2022/08/13 04:53:10;;;;;;;7.80;3.70;;;15.20;1.00;;;;;;5050598;28;20381;-49
2022/08/13 04:55:37;;;;;;;9.00;3.60;;;15.30;1.00;;;;;;5049952;28;20393;-50
2022/08/13 04:58:04;;;;;;;8.90;3.40;;;15.60;99.90;;;;;;5049603;28;20397;-49
2022/08/13 05:00:32;;;;;;;7.90;3.75;;;15.80;99.90;;;;;;5049146;28;20412;-49
2022/08/13 05:03:16;;;;;;;6.90;3.17;;;16.40;99.90;;;;;;5049961;28;20415;-50
2022/08/13 05:05:43;;;;;;;9.02;3.15;;;17.50;1.00;;;;;;5050093;28;20378;-50
2022/08/13 05:08:11;;;;;;;6.90;3.30;;;18.50;1.00;;;;;;5049037;28;20381;-50
2022/08/13 05:10:38;;;;;;;10.40;3.50;;;19.40;99.90;;;;;;5050455;28;20377;-50
2022/08/13 05:13:18;;;;;;;7.50;3.40;;;19.90;99.90;;;;;;5050117;28;20385;-49
2022/08/13 05:15:44;;;;;;;7.65;3.25;;;19.90;99.90;;;;;;5049327;28;20381;-50
2022/08/13 05:18:10;;;;;;;8.00;3.13;;;19.70;99.90;;;;;;5048751;28;20439;-50
2022/08/13 05:20:36;;;;;;;6.72;3.20;;;19.40;99.90;;;;;;5049932;28;20374;-50
2022/08/13 05:23:09;;;;;;;8.05;3.38;;;19.10;99.90;;;;;;5049079;28;21043;-52
2022/08/13 05:25:35;;;;;;;7.60;3.30;;;19.50;99.90;;;;;;5049793;28;20431;-50
2022/08/13 05:28:02;;;;;;;9.73;3.30;;;20.60;99.90;;;;;;5049353;28;20418;-50
2022/08/13 05:30:27;;;;;;;7.57;3.13;;;21.90;99.90;;;;;;5048537;28;20457;-50
2022/08/13 05:32:56;;;;;;;8.18;3.50;;;23.40;99.90;;;;;;5049541;28;20813;-50
2022/08/13 05:35:22;;;;;;;8.23;3.40;;;24.80;99.90;;;;;;5048845;28;20384;-50
2022/08/13 05:37:49;;;;;;;6.78;3.40;;;24.90;99.90;;;;;;5049285;28;20416;-50
2022/08/13 05:40:14;;;;;;;6.25;2.95;;;25.10;99.90;;;;;;5048988;28;20484;-50
2022/08/13 05:42:40;;;;;;;6.82;3.67;;;25.60;99.90;;;;;;5049571;28;20493;-51
2022/08/13 05:45:09;;;;;;;7.00;3.90;;;26.50;99.90;;;;;;5049656;28;20727;-50
2022/08/13 05:47:36;;;;;;;6.75;3.80;;;27.00;99.90;;;;;;5049265;28;20932;-51
2022/08/13 05:50:08;;;;;;;9.60;4.60;;;27.70;99.90;;;;;;5049461;28;20381;-50
2022/08/13 05:52:34;;;;;;;8.00;3.53;;;28.00;99.90;;;;;;5047747;28;20423;-51
2022/08/13 05:54:59;;;;;;;7.13;4.22;;;27.70;99.90;;;;;;5048823;28;20808;-50
2022/08/13 05:57:25;;;;;;;8.70;4.30;;;28.10;99.90;;;;;;5048423;28;20417;-50
2022/08/13 06:05:22;;;;;;;7.60;4.70;;;29.70;99.90;;;;;;5040739;28;20909;-50
2022/08/13 06:07:48;;;;;;;7.67;4.93;;;30.40;99.90;;;;;;5048186;28;20382;-51
2022/08/13 06:10:14;;;;;;;7.70;5.13;;;30.40;99.90;;;;;;5047985;28;20389;-51
2022/08/13 06:12:43;;;;;;;7.30;4.40;;;30.50;99.90;;;;;;5049068;28;20393;-51
2022/08/13 06:15:10;;;;;;;7.50;4.55;;;30.70;99.90;;;;;;5048524;28;20873;-53
2022/08/13 06:17:37;;;;;;;7.72;4.40;;;30.70;99.90;;;;;;5048446;28;20390;-51
2022/08/13 06:20:04;;;;;;;7.40;4.18;;;;;;;;;;5048970;28;20378;-51
2022/08/13 06:22:33;;;;;;;6.90;4.50;;;31.00;99.90;;;;;;5047521;28;20415;-51
2022/08/13 06:25:06;;;;;;;6.60;4.40;;;31.30;99.90;;;;;;5047990;28;20716;-51
2022/08/13 06:27:32;;;;;;;8.70;5.20;;;31.30;99.90;;;;;;5050538;28;20486;-51
2022/08/13 06:30:00;;;;;;;7.90;4.80;;;31.40;99.90;;;;;;5052301;28;20466;-50
2022/08/13 06:32:30;;;;;;;8.15;5.28;;;31.40;99.90;;;;;;5054485;28;20477;-51
2022/08/13 06:34:55;;;;;;;8.63;4.78;;;31.20;99.90;;;;;;5054019;28;20421;-50
2022/08/13 06:37:22;;;;;;;8.50;4.70;;;31.70;99.90;;;;;;5053932;28;20438;-51
2022/08/13 06:39:50;;;;;;;8.70;3.90;;;31.20;99.90;;;;;;5052187;28;20385;-51
2022/08/13 06:42:17;;;;;;;6.50;4.78;;;31.70;99.90;;;;;;5051562;28;20479;-51
2022/08/13 06:44:44;;;;;;;6.50;4.00;;;32.00;99.90;;;;;;5052110;28;20381;-51
2022/08/13 06:47:09;;;;;;;7.90;4.82;;;33.30;99.90;;;;;;5051790;28;20417;-56
2022/08/13 06:49:35;;;;;;;6.90;4.20;;;33.50;1.00;;;;;;5052311;28;20436;-51
2022/08/13 06:52:02;;;;;;;9.40;5.57;;;33.10;1.00;;;;;;5051832;28;20385;-52
2022/08/13 06:54:28;;;;;;;10.48;2.85;;;32.60;99.90;;;;;;5050959;28;20384;-51
2022/08/13 06:56:56;;;;;;;7.30;2.80;;;32.20;1.00;;;;;;5051440;28;20395;-51
2022/08/13 06:59:25;;;;;;;6.45;2.50;;;32.30;1.00;;;;;;5052003;28;20397;-51
2022/08/13 07:01:59;;;;;;;7.50;2.78;;;;;;;;;;5051689;28;20401;-51
2022/08/13 07:04:25;;;;;;;6.25;2.63;;;32.10;99.90;;;;;;5050190;28;20385;-51
2022/08/13 07:06:52;;;;;;;7.55;2.65;;;32.50;99.90;;;;;;5051169;28;21904;-51
2022/08/13 07:09:18;;;;;;;6.28;2.78;;;32.70;99.90;;;;;;5047176;28;20394;-52
2022/08/13 07:11:45;;;;;;;6.22;2.47;;;32.80;99.90;;;;;;5051358;28;20389;-51
2022/08/13 07:14:13;;;;;;;9.40;2.80;;;33.10;99.90;;;;;;5051161;28;20460;-56
2022/08/13 07:16:42;;;;;;;5.90;2.50;;;33.40;99.90;;;;;;5051497;28;20382;-51
2022/08/13 07:19:08;;;;;;;8.88;2.47;;;33.00;99.90;;;;;;5050971;28;20485;-51
2022/08/13 07:21:35;;;;;;;7.07;2.80;;;32.90;99.90;;;;;;5032433;28;20381;-52
2022/08/13 07:24:02;;;;;;;6.65;4.18;;;33.30;99.90;;;;;;5050475;28;20764;-51
2022/08/13 07:26:30;;;;;;;7.22;3.10;;;33.90;99.90;;;;;;5049072;28;20393;-52
2022/08/13 07:28:56;;;;;;;8.20;7.28;;;35.20;99.90;;;;;;5039978;28;20418;-51
2022/08/13 07:31:27;;;;;;;6.70;4.80;;;;;;;;;;5050115;28;20405;-54
2022/08/13 07:33:54;;;;;;;10.30;2.53;;;35.90;1.00;;;;;;5051617;28;20731;-52
2022/08/13 07:36:24;;;;;;;7.13;4.07;;;35.60;1.00;;;;;;5050539;28;20952;-51
2022/08/13 07:38:50;;;;;;;7.03;4.18;;;35.50;1.00;;;;;;5052524;28;20875;-51
2022/08/13 07:41:15;;;;;;;6.65;3.50;;;36.10;99.90;;;;;;5050437;28;20443;-51
2022/08/13 07:43:43;;;;;;;7.68;4.03;;;36.30;1.00;;;;;;5051657;28;20421;-51
2022/08/13 07:46:17;;;;;;;6.35;2.90;;;37.20;1.00;;;;;;5050757;28;20867;-51
2022/08/13 07:48:52;;;;;;;6.13;2.53;;;37.70;1.00;;;;;;5050511;28;20477;-52
2022/08/13 07:51:20;;;;;;;6.93;3.30;;;37.40;1.00;;;;;;5050453;28;20401;-51
2022/08/13 07:53:52;;;;;;;5.90;2.80;;;37.10;1.00;;;;;;5050104;28;20483;-51
2022/08/13 07:56:28;;;;;;;7.00;2.60;;;37.20;1.00;;;;;;5050198;28;20977;-51
2022/08/13 07:59:04;;;;;;;6.22;2.70;;;36.30;99.90;;;;;;5050205;28;20483;-52
2022/08/13 08:01:33;;;;;;;6.38;2.95;;;36.70;99.90;;;;;;5040036;28;20627;-52
2022/08/13 08:04:02;;;;;;;5.88;2.70;;;36.70;99.90;;;;;;5050723;28;20430;-51
2022/08/13 08:06:29;;;;;;;7.70;3.08;;;36.50;99.90;;;;;;5049802;28;20373;-52
2022/08/13 08:08:56;;;;;;;6.85;2.90;;;36.70;99.90;;;;;;5051024;28;20731;-51
2022/08/13 08:14:10;;;;;;;6.05;2.80;;;36.60;99.90;;;;;;5050656;28;20404;-51
2022/08/13 08:16:36;;;;;;;6.32;3.20;;;36.80;99.90;;;;;;5050417;28;20392;-51
2022/08/13 08:19:03;;;;;;;7.00;3.10;;;37.10;99.90;;;;;;5050529;28;20385;-52
2022/08/13 08:21:29;;;;;;;7.40;4.05;;;37.80;1.00;;;;;;5049882;28;20385;-51
2022/08/13 08:23:59;;;;;;;8.70;3.13;;;38.40;1.00;;;;;;5050452;28;20377;-52
2022/08/13 08:26:29;;;;;;;7.22;3.20;;;38.00;1.00;;;;;;5050047;28;20400;-51
2022/08/13 08:28:56;;;;;;;7.20;3.20;;;36.70;99.90;;;;;;5050655;28;20408;-51
2022/08/13 08:31:23;;;;;;;7.63;3.33;;;35.50;99.90;;;;;;5050177;28;20770;-52
2022/08/13 08:33:50;;;;;;;6.88;3.47;;;35.60;99.90;;;;;;5050907;28;20374;-51
2022/08/13 08:36:16;;;;;;;7.53;3.28;;;36.10;99.90;;;;;;5049726;28;20381;-53
2022/08/13 08:44:25;;;;;;;7.68;3.10;;;37.00;99.90;;;;;;5049793;28;20453;-51
2022/08/13 08:46:56;;;;;;;8.27;3.03;;;37.20;99.90;;;;;;5050670;28;20417;-51
2022/08/13 08:49:24;;;;;;;7.65;3.10;;;37.50;99.90;;;;;;5049927;28;20381;-51
2022/08/13 08:51:50;;;;;;;6.20;2.60;;;37.60;99.90;;;;;;5050078;28;20396;-51
2022/08/13 08:54:18;;;;;;;5.80;2.80;;;37.70;99.90;;;;;;5049827;28;20423;-51
2022/08/13 08:56:45;;;;;;;8.57;5.88;;;37.40;99.90;;;;;;5050518;28;20435;-51
2022/08/13 08:59:13;;;;;;;9.65;3.40;;;37.00;99.90;;;;;;5050664;28;20393;-50
2022/08/13 09:01:40;;;;;;;6.80;3.10;;;36.60;99.90;;;;;;5049786;28;20481;-51
2022/08/13 09:04:07;;;;;;;6.55;3.33;;;35.40;99.90;;;;;;5050253;28;20438;-50
2022/08/13 09:06:32;;;;;;;11.18;5.55;;;34.50;99.90;;;;;;5049699;28;20463;-52
2022/08/13 09:09:00;;;;;;;8.38;6.10;;;34.50;99.90;;;;;;5050126;28;20378;-50
2022/08/13 09:11:29;;;;;;;9.17;6.43;;;34.90;99.90;;;;;;5049027;28;20396;-51
2022/08/13 09:13:55;;;;;;;8.25;3.30;;;36.30;99.90;;;;;;5049872;28;20392;-52
2022/08/13 09:16:23;;;;;;;7.40;3.30;;;37.30;99.90;;;;;;5049441;28;20385;-51
2022/08/13 09:18:50;;;;;;;8.20;3.40;;;36.60;99.90;;;;;;5049786;28;20381;-51
2022/08/13 09:21:17;;;;;;;7.90;2.90;;;35.60;99.90;;;;;;5049358;28;20373;-52
2022/08/13 09:23:46;;;;;;;7.90;4.72;;;35.30;99.90;;;;;;5049734;28;20416;-51
2022/08/13 09:26:17;;;;;;;7.30;5.43;;;34.50;99.90;;;;;;5050038;28;20400;-51
2022/08/13 09:28:44;;;;;;;10.45;6.50;;;34.40;99.90;;;;;;5049481;28;20413;-51
2022/08/13 09:31:10;;;;;;;7.78;6.45;;;34.40;99.90;;;;;;5050021;28;20735;-51
2022/08/13 09:33:39;;;;;;;7.75;6.22;;;34.80;99.90;;;;;;5049207;28;20389;-51
2022/08/13 09:36:09;;;;;;;8.30;5.70;;;35.40;1.00;;;;;;5049812;28;20378;-51
2022/08/13 09:38:36;;;;;;;7.22;5.80;;;36.00;1.00;;;;;;5048820;28;20488;-53
2022/08/13 09:41:17;;;;;;;7.03;5.25;;;36.40;1.00;;;;;;5049228;28;21054;-51
2022/08/13 09:43:44;;;;;;;7.40;4.75;;;37.30;1.00;;;;;;5049932;28;20393;-51
2022/08/13 09:46:11;;;;;;;7.88;4.60;;;;;;;;;;5049407;28;20527;-51
2022/08/13 09:48:38;;;;;;;8.40;4.60;;;38.60;1.00;;;;;;5049069;28;20865;-52
2022/08/13 09:51:08;;;;;;;7.30;3.90;;;39.20;1.00;;;;;;5049783;28;20372;-51
2022/08/13 09:53:34;;;;;;;6.90;4.40;;;;;;;;;;5049113;28;20456;-51
2022/08/13 09:56:00;;;;;;;5.90;3.40;;;40.30;1.00;;;;;;5048944;28;20543;-52
2022/08/13 09:58:25;;;;;;;7.40;4.40;;;40.10;1.00;;;;;;5048991;28;20385;-51
2022/08/13 10:00:52;;;;;;;6.47;4.40;;;39.10;99.90;;;;;;5049560;28;20379;-51
2022/08/13 10:03:18;;;;;;;6.60;4.00;;;38.30;99.90;;;;;;5050917;28;20401;-51
2022/08/13 10:05:46;;;;;;;6.00;3.03;;;37.50;99.90;;;;;;5053585;28;20831;-51
2022/08/13 10:08:16;;;;;;;8.15;3.05;;;;;;;;;;5053350;28;20435;-51
2022/08/13 10:10:44;;;;;;;6.93;4.90;;;36.70;99.90;;;;;;5053344;28;20439;-51
2022/08/13 10:13:10;;;;;;;7.20;4.90;;;36.30;99.90;;;;;;5053139;28;20381;-51
2022/08/13 10:15:37;;;;;;;6.80;5.03;;;36.40;99.90;;;;;;5052800;28;21187;-52
2022/08/13 10:18:03;;;;;;;8.43;5.00;;;36.30;99.90;;;;;;5053414;28;20381;-51
2022/08/13 10:20:30;;;;;;;7.43;5.37;;;36.30;99.90;;;;;;5052646;28;20377;-51
2022/08/13 10:22:57;;;;;;;6.83;5.03;;;36.10;99.90;;;;;;5052828;28;20409;-52
2022/08/13 10:25:24;;;;;;;7.00;4.60;;;36.40;99.90;;;;;;5052469;28;20385;-51
2022/08/13 10:27:50;;;;;;;7.60;5.40;;;37.00;99.90;;;;;;5053018;28;20480;-51
2022/08/13 10:30:18;;;;;;;7.43;4.25;;;36.70;99.90;;;;;;5052427;28;20870;-51
2022/08/13 10:32:44;;;;;;;7.23;4.93;;;35.80;99.90;;;;;;5053006;28;20442;-53
2022/08/13 10:35:09;;;;;;;6.73;5.17;;;35.30;99.90;;;;;;5053429;28;20863;-51
2022/08/13 10:37:46;;;;;;;8.13;5.63;;;35.40;99.90;;;;;;5052710;28;20675;-51
2022/08/13 10:40:16;;;;;;;7.00;5.50;;;35.70;99.90;;;;;;5052434;28;20388;-51
2022/08/13 10:42:44;;;;;;;7.15;5.00;;;35.60;99.90;;;;;;5052672;28;20409;-51
2022/08/13 10:45:12;;;;;;;8.10;5.00;;;34.80;99.90;;;;;;5052690;28;20384;-51
2022/08/13 10:47:51;;;;;;;7.43;5.60;;;34.00;99.90;;;;;;5052154;28;20381;-51
2022/08/13 10:50:20;;;;;;;7.80;4.90;;;33.30;99.90;;;;;;5052232;28;20381;-51
2022/08/13 10:52:46;;;;;;;6.85;4.35;;;32.50;99.90;;;;;;5052768;28;20389;-51
2022/08/13 10:55:14;;;;;;;8.40;4.82;;;32.40;99.90;;;;;;5052042;28;20374;-51
2022/08/13 10:57:44;;;;;;;6.97;4.80;;;31.60;99.90;;;;;;5050099;28;20405;-51
2022/08/13 11:00:14;;;;;;;7.30;5.18;;;31.40;99.90;;;;;;5050862;28;20402;-51
2022/08/13 11:02:40;;;;;;;7.28;4.90;;;31.20;99.90;;;;;;5050823;28;20409;-51
2022/08/13 11:05:07;;;;;;;7.22;5.20;;;31.20;99.90;;;;;;5051704;28;20743;-51
2022/08/13 11:07:37;;;;;;;6.97;5.55;;;30.90;99.90;;;;;;5050404;28;20389;-51
2022/08/13 11:10:09;;;;;;;8.20;5.20;;;30.30;99.90;;;;;;5051162;28;20831;-51
2022/08/13 11:12:42;;;;;;;6.40;4.20;;;30.10;99.90;;;;;;5050567;28;20475;-51
2022/08/13 11:15:09;;;;;;;6.95;5.10;;;30.10;99.90;;;;;;5050980;28;20532;-50
2022/08/13 11:17:35;;;;;;;7.23;4.03;;;30.30;99.90;;;;;;5051252;28;20401;-51
2022/08/13 11:20:06;;;;;;;6.50;4.03;;;30.50;99.90;;;;;;5051555;28;20377;-51
2022/08/13 11:22:33;;;;;;;6.90;4.30;;;30.30;99.90;;;;;;5033089;28;20405;-50
2022/08/13 11:25:00;;;;;;;8.27;4.90;;;30.60;99.90;;;;;;5051261;28;20378;-51
2022/08/13 11:27:26;;;;;;;6.50;4.57;;;30.50;99.90;;;;;;5050126;28;20403;-51
2022/08/13 11:29:55;;;;;;;6.70;4.38;;;30.90;99.90;;;;;;5051253;28;20455;-51
2022/08/13 11:32:21;;;;;;;7.00;4.30;;;31.20;99.90;;;;;;5049620;28;20393;-51
2022/08/13 11:34:47;;;;;;;7.70;4.10;;;30.70;99.90;;;;;;5050137;28;20447;-51
2022/08/13 11:37:13;;;;;;;6.38;4.20;;;;;;;;;;5050003;28;20386;-51
2022/08/13 11:39:39;;;;;;;6.60;4.13;;;;;;;;;;5050199;28;21023;-50
2022/08/13 11:42:05;;;;;;;6.75;4.55;;;;;;;;;;5050049;28;20417;-51
2022/08/13 11:44:31;;;;;;;6.40;4.20;;;;;;;;;;5050265;28;20472;-50
2022/08/13 11:46:57;;;;;;;6.40;4.23;;;31.00;99.90;;;;;;5050310;28;20480;-51
2022/08/13 11:49:22;;;;;;;6.10;4.77;;;31.00;99.90;;;;;;5050256;28;20390;-50
2022/08/13 11:51:48;;;;;;;6.50;4.30;;;30.70;99.90;;;;;;5046546;28;20883;-50
2022/08/13 11:54:15;;;;;;;6.73;4.47;;;30.80;99.90;;;;;;5042167;28;20876;-51
2022/08/13 11:56:40;;;;;;;8.52;4.60;;;31.10;99.90;;;;;;5049869;28;20462;-52
2022/08/13 11:59:06;;;;;;;7.68;4.78;;;31.30;99.90;;;;;;5049403;28;20446;-52
2022/08/13 12:01:32;;;;;;;6.75;4.03;;;31.60;99.90;;;;;;5047165;28;20470;-52
2022/08/13 12:03:57;;;;;;;6.75;4.80;;;31.80;99.90;;;;;;5035337;28;20403;-53
2022/08/13 12:06:23;;;;;;;6.93;4.70;;;32.10;99.90;;;;;;5043151;28;20438;-52
2022/08/13 12:08:49;;;;;;;6.20;3.90;;;32.40;99.90;;;;;;5048864;28;20390;-53
2022/08/13 12:11:15;;;;;;;6.40;4.30;;;32.10;99.90;;;;;;5047410;28;20385;-52
2022/08/13 12:13:41;;;;;;;7.80;4.55;;;32.00;99.90;;;;;;5044057;28;20401;-52
2022/08/13 12:16:06;;;;;;;6.70;4.88;;;32.10;99.90;;;;;;5042471;28;20424;-52
2022/08/13 12:18:32;;;;;;;8.10;4.60;;;32.10;99.90;;;;;;5043298;28;20475;-52
2022/08/13 12:20:58;;;;;;;7.33;4.50;;;32.40;99.90;;;;;;5042261;28;20725;-52
2022/08/13 12:23:23;;;;;;;6.50;4.70;;;32.60;99.90;;;;;;5029350;28;20494;-52
2022/08/13 12:25:49;;;;;;;6.30;4.37;;;32.30;99.90;;;;;;5033763;28;20412;-53
2022/08/13 12:28:26;;;;;;;7.43;5.17;;;32.50;99.90;;;;;;5035407;28;20430;-52
2022/08/13 12:30:55;;;;;;;6.60;4.75;;;32.70;99.90;;;;;;5049695;28;20451;-52
2022/08/13 12:33:21;;;;;;;6.70;5.13;;;32.60;99.90;;;;;;5048459;28;20396;-54
2022/08/13 12:35:47;;;;;;;6.50;4.90;;;31.60;99.90;;;;;;5042938;28;20426;-50
2022/08/13 12:38:14;;;;;;;6.60;4.60;;;31.30;99.90;;;;;;5029835;28;20415;-50
2022/08/13 12:40:41;;;;;;;7.47;4.70;;;31.40;99.90;;;;;;5028921;28;20470;-51
2022/08/13 12:43:07;;;;;;;6.40;3.78;;;31.40;99.90;;;;;;5029433;28;20753;-50
2022/08/13 12:45:35;;;;;;;6.90;4.40;;;31.60;99.90;;;;;;5032971;28;20388;-51
2022/08/13 12:48:06;;;;;;;6.35;4.15;;;31.40;99.90;;;;;;5049311;28;20385;-50
2022/08/13 12:50:32;;;;;;;6.88;5.00;;;31.70;99.90;;;;;;5047589;28;20397;-51
2022/08/13 12:52:58;;;;;;;8.20;4.45;;;31.70;99.90;;;;;;5048925;28;20417;-50
2022/08/13 12:55:23;;;;;;;6.27;4.43;;;32.00;99.90;;;;;;5047804;28;20439;-52
2022/08/13 12:57:50;;;;;;;7.30;4.70;;;32.10;99.90;;;;;;5049169;28;20443;-50
2022/08/13 13:00:16;;;;;;;6.55;4.43;;;31.80;99.90;;;;;;5048439;28;20512;-50
2022/08/13 13:02:42;;;;;;;8.20;4.90;;;31.40;99.90;;;;;;5048207;28;20401;-50
2022/08/13 13:05:08;;;;;;;7.10;5.10;;;31.20;99.90;;;;;;5041178;28;20462;-50
2022/08/13 13:07:33;;;;;;;6.03;3.97;;;31.50;99.90;;;;;;5045631;28;20424;-50
2022/08/13 13:10:00;;;;;;;6.53;4.70;;;31.70;99.90;;;;;;5049364;28;20394;-50
2022/08/13 13:12:26;;;;;;;7.60;4.60;;;32.20;99.90;;;;;;5048415;28;20855;-50
2022/08/13 13:14:52;;;;;;;6.63;5.18;;;32.10;99.90;;;;;;5043969;28;20397;-50
2022/08/13 13:17:18;;;;;;;8.57;4.75;;;31.90;99.90;;;;;;5039260;28;20402;-56